Kingman, Arizona
Current Conditions -  °F | °C
As of 2:51 PM on Sunday 23 Nov 2014 (Local Time) from KIGM Reporting Station
Clear Clear  
Wind Chill: 57°   Ceiling: Unl
Heat Index: 57°   Visibility: 10mi
Dew Point:   Wind: 20mph
Humidity: 12%   Direction: 350°N
Pressure: 30.18"   Gusts: 29mph
Location:  35.19°N, 114.05°W
Report Text: KIGM 232151Z AUTO 35017G25KT 10SM CLR 14/M16 A3018 RMK AO2 SLP183 T01391156
Loading
Personal Weather Stations






























Interactive Weather Map New forecast layout! Learn more

10-Day Weather Forecast

Advertisements
Track Severe Weather on mobile